sensor_id;sensor_type;location;lat;lon;timestamp;temperature;humidity
22850;DHT22;11591;44.792;10.358;2023-08-08T04:23:37;19.50;91.60
22850;DHT22;11591;44.792;10.358;2023-08-08T04:26:02;19.50;91.30
22850;DHT22;11591;44.792;10.358;2023-08-08T04:28:28;19.50;91.30
22850;DHT22;11591;44.792;10.358;2023-08-08T04:30:54;19.40;91.40
22850;DHT22;11591;44.792;10.358;2023-08-08T04:33:20;19.50;91.60
22850;DHT22;11591;44.792;10.358;2023-08-08T04:35:46;19.50;91.60
22850;DHT22;11591;44.792;10.358;2023-08-08T04:38:14;19.50;92.00
22850;DHT22;11591;44.792;10.358;2023-08-08T04:40:41;19.40;91.70
22850;DHT22;11591;44.792;10.358;2023-08-08T04:43:06;19.40;91.50
22850;DHT22;11591;44.792;10.358;2023-08-08T04:45:32;19.30;91.40
22850;DHT22;11591;44.792;10.358;2023-08-08T04:47:59;19.30;91.30
22850;DHT22;11591;44.792;10.358;2023-08-08T04:50:25;19.20;91.50
22850;DHT22;11591;44.792;10.358;2023-08-08T04:52:50;19.10;91.90
22850;DHT22;11591;44.792;10.358;2023-08-08T04:55:16;19.20;91.30
22850;DHT22;11591;44.792;10.358;2023-08-08T04:57:42;19.30;91.20
22850;DHT22;11591;44.792;10.358;2023-08-08T05:00:08;19.40;91.60
22850;DHT22;11591;44.792;10.358;2023-08-08T05:02:35;19.50;91.90
22850;DHT22;11591;44.792;10.358;2023-08-08T05:05:01;19.50;91.90
22850;DHT22;11591;44.792;10.358;2023-08-08T05:07:27;19.40;92.00
22850;DHT22;11591;44.792;10.358;2023-08-08T05:09:53;19.40;92.20
22850;DHT22;11591;44.792;10.358;2023-08-08T05:12:19;19.50;92.00
22850;DHT22;11591;44.792;10.358;2023-08-08T05:14:45;19.50;92.00
22850;DHT22;11591;44.792;10.358;2023-08-08T05:17:10;19.50;91.90
22850;DHT22;11591;44.792;10.358;2023-08-08T05:19:36;19.50;91.30
22850;DHT22;11591;44.792;10.358;2023-08-08T05:22:02;19.40;91.30
22850;DHT22;11591;44.792;10.358;2023-08-08T05:24:28;19.40;91.30
22850;DHT22;11591;44.792;10.358;2023-08-08T05:26:54;19.40;91.00
22850;DHT22;11591;44.792;10.358;2023-08-08T05:29:20;19.50;91.10
22850;DHT22;11591;44.792;10.358;2023-08-08T05:31:46;19.50;91.00
22850;DHT22;11591;44.792;10.358;2023-08-08T05:34:13;19.60;91.00
22850;DHT22;11591;44.792;10.358;2023-08-08T05:36:39;19.70;91.00
22850;DHT22;11591;44.792;10.358;2023-08-08T05:39:05;19.70;90.80
22850;DHT22;11591;44.792;10.358;2023-08-08T05:41:33;19.70;90.80
22850;DHT22;11591;44.792;10.358;2023-08-08T05:43:58;19.80;90.80
22850;DHT22;11591;44.792;10.358;2023-08-08T05:46:24;19.60;91.00
22850;DHT22;11591;44.792;10.358;2023-08-08T05:48:50;19.70;91.30
22850;DHT22;11591;44.792;10.358;2023-08-08T05:51:16;19.80;91.70
22850;DHT22;11591;44.792;10.358;2023-08-08T05:53:42;19.80;91.20
22850;DHT22;11591;44.792;10.358;2023-08-08T05:56:07;19.90;91.20
22850;DHT22;11591;44.792;10.358;2023-08-08T05:58:34;20.00;91.10
22850;DHT22;11591;44.792;10.358;2023-08-08T06:01:02;20.00;90.90
22850;DHT22;11591;44.792;10.358;2023-08-08T06:03:32;20.00;91.30
22850;DHT22;11591;44.792;10.358;2023-08-08T06:05:57;20.00;90.90
22850;DHT22;11591;44.792;10.358;2023-08-08T06:08:23;19.90;91.30
22850;DHT22;11591;44.792;10.358;2023-08-08T06:10:49;19.90;90.90
22850;DHT22;11591;44.792;10.358;2023-08-08T06:13:15;19.80;90.70
22850;DHT22;11591;44.792;10.358;2023-08-08T06:15:40;19.90;90.90
22850;DHT22;11591;44.792;10.358;2023-08-08T06:18:06;20.00;90.90
22850;DHT22;11591;44.792;10.358;2023-08-08T06:20:32;20.10;90.80
22850;DHT22;11591;44.792;10.358;2023-08-08T06:22:58;20.10;91.00
22850;DHT22;11591;44.792;10.358;2023-08-08T06:25:23;20.10;90.70
22850;DHT22;11591;44.792;10.358;2023-08-08T06:27:49;20.00;90.90
22850;DHT22;11591;44.792;10.358;2023-08-08T06:30:15;20.10;91.00
22850;DHT22;11591;44.792;10.358;2023-08-08T06:32:41;20.10;90.80
22850;DHT22;11591;44.792;10.358;2023-08-08T06:35:07;20.10;90.80
22850;DHT22;11591;44.792;10.358;2023-08-08T06:37:33;20.00;91.10
22850;DHT22;11591;44.792;10.358;2023-08-08T06:39:59;20.00;91.00
22850;DHT22;11591;44.792;10.358;2023-08-08T06:42:25;20.00;91.10
22850;DHT22;11591;44.792;10.358;2023-08-08T06:44:55;20.00;91.00
22850;DHT22;11591;44.792;10.358;2023-08-08T06:47:21;19.90;90.90
22850;DHT22;11591;44.792;10.358;2023-08-08T06:49:47;19.90;91.00
22850;DHT22;11591;44.792;10.358;2023-08-08T06:52:12;19.90;91.20
22850;DHT22;11591;44.792;10.358;2023-08-08T06:54:38;19.70;91.40
22850;DHT22;11591;44.792;10.358;2023-08-08T06:57:04;19.70;91.50
22850;DHT22;11591;44.792;10.358;2023-08-08T06:59:30;19.70;91.70
22850;DHT22;11591;44.792;10.358;2023-08-08T07:01:56;19.80;92.30
22850;DHT22;11591;44.792;10.358;2023-08-08T07:04:22;19.80;92.40
22850;DHT22;11591;44.792;10.358;2023-08-08T07:06:48;19.90;92.50
22850;DHT22;11591;44.792;10.358;2023-08-08T07:09:13;20.00;92.40
22850;DHT22;11591;44.792;10.358;2023-08-08T07:11:40;20.10;92.60
22850;DHT22;11591;44.792;10.358;2023-08-08T07:14:06;20.10;92.80
22850;DHT22;11591;44.792;10.358;2023-08-08T07:16:32;20.20;92.90
22850;DHT22;11591;44.792;10.358;2023-08-08T07:18:58;20.20;93.20
22850;DHT22;11591;44.792;10.358;2023-08-08T07:21:24;20.20;93.10
22850;DHT22;11591;44.792;10.358;2023-08-08T07:23:49;20.20;93.20
22850;DHT22;11591;44.792;10.358;2023-08-08T07:26:15;20.20;93.50
22850;DHT22;11591;44.792;10.358;2023-08-08T07:28:41;20.20;93.50
22850;DHT22;11591;44.792;10.358;2023-08-08T07:31:07;20.20;93.50
22850;DHT22;11591;44.792;10.358;2023-08-08T07:33:32;20.20;93.50
22850;DHT22;11591;44.792;10.358;2023-08-08T07:35:58;20.20;93.60
22850;DHT22;11591;44.792;10.358;2023-08-08T07:38:24;20.20;93.90
22850;DHT22;11591;44.792;10.358;2023-08-08T07:40:50;20.20;94.10
22850;DHT22;11591;44.792;10.358;2023-08-08T07:43:16;20.30;93.90
22850;DHT22;11591;44.792;10.358;2023-08-08T07:45:42;20.20;94.20
22850;DHT22;11591;44.792;10.358;2023-08-08T07:48:08;20.30;94.20
22850;DHT22;11591;44.792;10.358;2023-08-08T07:50:34;20.30;94.10
22850;DHT22;11591;44.792;10.358;2023-08-08T07:52:59;20.30;94.10
22850;DHT22;11591;44.792;10.358;2023-08-08T07:55:25;20.20;94.30
22850;DHT22;11591;44.792;10.358;2023-08-08T07:57:51;20.30;94.20
22850;DHT22;11591;44.792;10.358;2023-08-08T08:00:17;20.30;94.30
22850;DHT22;11591;44.792;10.358;2023-08-08T08:02:44;20.30;94.20
22850;DHT22;11591;44.792;10.358;2023-08-08T08:05:11;20.40;93.90
22850;DHT22;11591;44.792;10.358;2023-08-08T08:07:38;20.50;93.60
22850;DHT22;11591;44.792;10.358;2023-08-08T08:10:06;20.60;93.60
22850;DHT22;11591;44.792;10.358;2023-08-08T08:12:32;20.70;93.60
22850;DHT22;11591;44.792;10.358;2023-08-08T08:14:58;20.80;93.60
22850;DHT22;11591;44.792;10.358;2023-08-08T08:17:24;20.80;93.60
22850;DHT22;11591;44.792;10.358;2023-08-08T08:19:51;20.80;93.70
22850;DHT22;11591;44.792;10.358;2023-08-08T08:22:17;20.90;93.30
22850;DHT22;11591;44.792;10.358;2023-08-08T08:24:43;21.00;93.30
22850;DHT22;11591;44.792;10.358;2023-08-08T08:27:10;21.20;93.00
22850;DHT22;11591;44.792;10.358;2023-08-08T08:29:35;21.30;92.90
22850;DHT22;11591;44.792;10.358;2023-08-08T08:32:01;21.30;92.70
22850;DHT22;11591;44.792;10.358;2023-08-08T08:34:27;21.40;92.70
22850;DHT22;11591;44.792;10.358;2023-08-08T08:36:53;21.50;92.60
22850;DHT22;11591;44.792;10.358;2023-08-08T08:39:19;21.60;92.50
22850;DHT22;11591;44.792;10.358;2023-08-08T08:41:48;21.70;92.60
22850;DHT22;11591;44.792;10.358;2023-08-08T08:44:20;21.80;92.40
22850;DHT22;11591;44.792;10.358;2023-08-08T08:46:47;21.70;92.30
22850;DHT22;11591;44.792;10.358;2023-08-08T08:49:14;21.60;92.30
22850;DHT22;11591;44.792;10.358;2023-08-08T08:51:42;21.50;92.50
22850;DHT22;11591;44.792;10.358;2023-08-08T08:54:08;21.40;92.80
22850;DHT22;11591;44.792;10.358;2023-08-08T08:56:35;21.50;92.50
22850;DHT22;11591;44.792;10.358;2023-08-08T08:59:01;21.60;92.80
22850;DHT22;11591;44.792;10.358;2023-08-08T09:01:28;21.70;92.70
22850;DHT22;11591;44.792;10.358;2023-08-08T09:03:54;21.80;92.60
22850;DHT22;11591;44.792;10.358;2023-08-08T09:06:22;21.80;92.60
22850;DHT22;11591;44.792;10.358;2023-08-08T09:08:48;21.90;92.70
22850;DHT22;11591;44.792;10.358;2023-08-08T09:11:14;22.10;92.70
22850;DHT22;11591;44.792;10.358;2023-08-08T09:13:40;22.20;92.60
22850;DHT22;11591;44.792;10.358;2023-08-08T09:16:07;22.20;92.20
22850;DHT22;11591;44.792;10.358;2023-08-08T09:18:38;22.10;91.70
22850;DHT22;11591;44.792;10.358;2023-08-08T09:21:04;22.20;92.10
22850;DHT22;11591;44.792;10.358;2023-08-08T09:23:30;22.30;92.20
22850;DHT22;11591;44.792;10.358;2023-08-08T09:25:56;22.30;92.10
22850;DHT22;11591;44.792;10.358;2023-08-08T09:28:22;22.40;91.90
22850;DHT22;11591;44.792;10.358;2023-08-08T09:30:48;22.50;91.70
22850;DHT22;11591;44.792;10.358;2023-08-08T09:33:14;22.50;91.20
22850;DHT22;11591;44.792;10.358;2023-08-08T09:35:40;22.60;91.50
22850;DHT22;11591;44.792;10.358;2023-08-08T09:38:07;22.70;91.50
22850;DHT22;11591;44.792;10.358;2023-08-08T09:40:33;22.70;91.60
22850;DHT22;11591;44.792;10.358;2023-08-08T09:42:59;22.80;91.80
22850;DHT22;11591;44.792;10.358;2023-08-08T09:45:25;22.80;91.70
22850;DHT22;11591;44.792;10.358;2023-08-08T09:47:52;22.90;91.80
22850;DHT22;11591;44.792;10.358;2023-08-08T09:50:18;22.90;91.70
22850;DHT22;11591;44.792;10.358;2023-08-08T09:52:46;23.00;91.70
22850;DHT22;11591;44.792;10.358;2023-08-08T09:55:13;23.10;91.80
22850;DHT22;11591;44.792;10.358;2023-08-08T09:57:39;23.10;92.10
22850;DHT22;11591;44.792;10.358;2023-08-08T10:00:06;23.10;92.10
22850;DHT22;11591;44.792;10.358;2023-08-08T10:02:36;23.20;92.10
22850;DHT22;11591;44.792;10.358;2023-08-08T10:05:04;23.30;92.10
22850;DHT22;11591;44.792;10.358;2023-08-08T10:07:30;23.30;92.10
22850;DHT22;11591;44.792;10.358;2023-08-08T10:09:57;23.40;92.00
22850;DHT22;11591;44.792;10.358;2023-08-08T10:12:25;23.40;92.00
22850;DHT22;11591;44.792;10.358;2023-08-08T10:14:52;23.40;92.00
22850;DHT22;11591;44.792;10.358;2023-08-08T10:17:18;23.40;91.90
22850;DHT22;11591;44.792;10.358;2023-08-08T10:19:54;23.40;91.60
22850;DHT22;11591;44.792;10.358;2023-08-08T10:22:22;23.50;91.60
22850;DHT22;11591;44.792;10.358;2023-08-08T10:24:52;23.60;91.80
22850;DHT22;11591;44.792;10.358;2023-08-08T10:27:32;23.60;92.00
22850;DHT22;11591;44.792;10.358;2023-08-08T10:30:05;23.60;91.90
22850;DHT22;11591;44.792;10.358;2023-08-08T10:32:43;23.70;91.60
22850;DHT22;11591;44.792;10.358;2023-08-08T10:35:11;23.70;90.90
22850;DHT22;11591;44.792;10.358;2023-08-08T10:37:37;23.70;89.90
22850;DHT22;11591;44.792;10.358;2023-08-08T10:40:04;23.70;90.40
22850;DHT22;11591;44.792;10.358;2023-08-08T10:42:31;23.80;90.00
22850;DHT22;11591;44.792;10.358;2023-08-08T10:45:01;23.80;88.90
22850;DHT22;11591;44.792;10.358;2023-08-08T10:47:34;23.90;87.70
22850;DHT22;11591;44.792;10.358;2023-08-08T10:50:07;23.80;87.70
22850;DHT22;11591;44.792;10.358;2023-08-08T10:58:02;23.90;88.80
22850;DHT22;11591;44.792;10.358;2023-08-08T11:00:31;23.90;88.50
22850;DHT22;11591;44.792;10.358;2023-08-08T11:02:58;24.10;87.50
22850;DHT22;11591;44.792;10.358;2023-08-08T11:05:25;24.10;86.80
22850;DHT22;11591;44.792;10.358;2023-08-08T11:07:53;24.10;87.80
22850;DHT22;11591;44.792;10.358;2023-08-08T11:10:21;24.10;86.80
22850;DHT22;11591;44.792;10.358;2023-08-08T11:13:02;24.20;85.70
22850;DHT22;11591;44.792;10.358;2023-08-08T11:15:34;24.30;85.70
22850;DHT22;11591;44.792;10.358;2023-08-08T11:18:01;24.30;85.50
22850;DHT22;11591;44.792;10.358;2023-08-08T11:20:32;24.30;85.40
22850;DHT22;11591;44.792;10.358;2023-08-08T11:22:58;24.40;85.30
22850;DHT22;11591;44.792;10.358;2023-08-08T11:25:29;24.50;86.50
22850;DHT22;11591;44.792;10.358;2023-08-08T11:27:56;24.50;87.80
22850;DHT22;11591;44.792;10.358;2023-08-08T11:30:24;24.50;88.20
22850;DHT22;11591;44.792;10.358;2023-08-08T11:32:53;24.60;87.60
22850;DHT22;11591;44.792;10.358;2023-08-08T11:35:23;24.60;87.50
22850;DHT22;11591;44.792;10.358;2023-08-08T11:37:53;24.70;87.60
22850;DHT22;11591;44.792;10.358;2023-08-08T11:40:20;24.70;87.20
22850;DHT22;11591;44.792;10.358;2023-08-08T11:42:47;24.70;86.90
22850;DHT22;11591;44.792;10.358;2023-08-08T11:45:16;24.70;86.50
22850;DHT22;11591;44.792;10.358;2023-08-08T11:47:41;24.80;86.00
22850;DHT22;11591;44.792;10.358;2023-08-08T11:50:09;24.80;85.50
22850;DHT22;11591;44.792;10.358;2023-08-08T11:52:40;24.90;86.20
22850;DHT22;11591;44.792;10.358;2023-08-08T11:55:07;24.90;86.10
22850;DHT22;11591;44.792;10.358;2023-08-08T11:57:41;24.90;86.40
22850;DHT22;11591;44.792;10.358;2023-08-08T12:00:08;25.00;87.40
22850;DHT22;11591;44.792;10.358;2023-08-08T12:02:42;25.00;88.30
22850;DHT22;11591;44.792;10.358;2023-08-08T12:05:10;25.20;87.30
22850;DHT22;11591;44.792;10.358;2023-08-08T12:07:42;25.20;87.30
22850;DHT22;11591;44.792;10.358;2023-08-08T12:10:18;25.20;86.10
22850;DHT22;11591;44.792;10.358;2023-08-08T12:12:45;25.30;87.10
22850;DHT22;11591;44.792;10.358;2023-08-08T12:15:11;25.30;86.80
22850;DHT22;11591;44.792;10.358;2023-08-08T12:17:38;25.30;87.50
22850;DHT22;11591;44.792;10.358;2023-08-08T12:20:05;25.30;87.50
22850;DHT22;11591;44.792;10.358;2023-08-08T12:22:32;25.40;88.10
22850;DHT22;11591;44.792;10.358;2023-08-08T12:24:57;25.40;87.50
22850;DHT22;11591;44.792;10.358;2023-08-08T12:27:23;25.40;86.80
22850;DHT22;11591;44.792;10.358;2023-08-08T12:29:49;25.50;86.60
22850;DHT22;11591;44.792;10.358;2023-08-08T12:32:15;25.50;86.30
22850;DHT22;11591;44.792;10.358;2023-08-08T12:34:40;25.60;86.80
22850;DHT22;11591;44.792;10.358;2023-08-08T12:37:06;25.60;85.80
22850;DHT22;11591;44.792;10.358;2023-08-08T12:39:33;25.60;85.80
22850;DHT22;11591;44.792;10.358;2023-08-08T12:41:58;25.70;86.40
22850;DHT22;11591;44.792;10.358;2023-08-08T12:44:24;25.70;86.10
22850;DHT22;11591;44.792;10.358;2023-08-08T12:46:50;25.80;85.00
22850;DHT22;11591;44.792;10.358;2023-08-08T12:49:16;25.80;84.50
22850;DHT22;11591;44.792;10.358;2023-08-08T12:51:41;25.90;83.60
22850;DHT22;11591;44.792;10.358;2023-08-08T12:54:07;26.00;83.90
22850;DHT22;11591;44.792;10.358;2023-08-08T12:56:33;26.00;83.70
22850;DHT22;11591;44.792;10.358;2023-08-08T12:58:59;26.10;84.20
22850;DHT22;11591;44.792;10.358;2023-08-08T13:01:25;26.10;83.70
22850;DHT22;11591;44.792;10.358;2023-08-08T13:03:51;26.20;83.30
22850;DHT22;11591;44.792;10.358;2023-08-08T13:06:17;26.20;83.40
22850;DHT22;11591;44.792;10.358;2023-08-08T13:08:42;26.20;83.70
22850;DHT22;11591;44.792;10.358;2023-08-08T13:11:08;26.30;83.60
22850;DHT22;11591;44.792;10.358;2023-08-08T13:13:34;26.40;82.60
22850;DHT22;11591;44.792;10.358;2023-08-08T13:16:00;26.50;82.40
22850;DHT22;11591;44.792;10.358;2023-08-08T13:18:26;26.60;82.90
22850;DHT22;11591;44.792;10.358;2023-08-08T13:20:52;26.70;82.00
22850;DHT22;11591;44.792;10.358;2023-08-08T13:23:18;26.80;81.70
22850;DHT22;11591;44.792;10.358;2023-08-08T13:25:44;26.90;80.80
22850;DHT22;11591;44.792;10.358;2023-08-08T13:28:10;27.00;81.00
22850;DHT22;11591;44.792;10.358;2023-08-08T13:30:35;27.10;78.70
22850;DHT22;11591;44.792;10.358;2023-08-08T13:33:02;27.20;80.70
22850;DHT22;11591;44.792;10.358;2023-08-08T13:35:29;27.20;80.20
22850;DHT22;11591;44.792;10.358;2023-08-08T13:37:56;27.30;80.60
22850;DHT22;11591;44.792;10.358;2023-08-08T13:40:21;27.40;80.60
22850;DHT22;11591;44.792;10.358;2023-08-08T13:42:47;27.50;80.40
22850;DHT22;11591;44.792;10.358;2023-08-08T13:45:14;27.50;80.10
22850;DHT22;11591;44.792;10.358;2023-08-08T13:47:40;27.60;79.10
22850;DHT22;11591;44.792;10.358;2023-08-08T13:50:06;27.70;80.30
22850;DHT22;11591;44.792;10.358;2023-08-08T13:52:33;27.70;79.00
22850;DHT22;11591;44.792;10.358;2023-08-08T13:54:59;27.80;79.50
22850;DHT22;11591;44.792;10.358;2023-08-08T13:57:25;27.80;79.60
22850;DHT22;11591;44.792;10.358;2023-08-08T13:59:51;27.80;78.70
22850;DHT22;11591;44.792;10.358;2023-08-08T14:02:17;27.90;77.70
22850;DHT22;11591;44.792;10.358;2023-08-08T14:04:46;27.90;77.60
22850;DHT22;11591;44.792;10.358;2023-08-08T14:07:12;28.00;77.60
22850;DHT22;11591;44.792;10.358;2023-08-08T14:09:38;28.10;78.00
22850;DHT22;11591;44.792;10.358;2023-08-08T14:12:04;28.20;78.30
22850;DHT22;11591;44.792;10.358;2023-08-08T14:14:30;28.10;78.60
22850;DHT22;11591;44.792;10.358;2023-08-08T14:16:56;28.20;78.70
22850;DHT22;11591;44.792;10.358;2023-08-08T14:19:22;28.20;78.40
22850;DHT22;11591;44.792;10.358;2023-08-08T14:21:48;28.30;78.30
22850;DHT22;11591;44.792;10.358;2023-08-08T14:24:15;28.30;77.80
22850;DHT22;11591;44.792;10.358;2023-08-08T14:26:41;28.40;77.60
22850;DHT22;11591;44.792;10.358;2023-08-08T14:29:07;28.50;77.60
22850;DHT22;11591;44.792;10.358;2023-08-08T14:31:33;28.60;77.10
22850;DHT22;11591;44.792;10.358;2023-08-08T14:33:59;28.80;77.20
22850;DHT22;11591;44.792;10.358;2023-08-08T14:36:24;28.90;77.30
22850;DHT22;11591;44.792;10.358;2023-08-08T14:38:50;29.00;77.20
22850;DHT22;11591;44.792;10.358;2023-08-08T14:41:16;29.10;77.10
22850;DHT22;11591;44.792;10.358;2023-08-08T14:43:42;29.20;76.50
22850;DHT22;11591;44.792;10.358;2023-08-08T14:46:08;29.30;76.50
22850;DHT22;11591;44.792;10.358;2023-08-08T14:48:33;29.50;74.80
22850;DHT22;11591;44.792;10.358;2023-08-08T14:51:02;29.70;74.80
22850;DHT22;11591;44.792;10.358;2023-08-08T14:53:29;30.00;75.50
22850;DHT22;11591;44.792;10.358;2023-08-08T14:55:54;30.20;75.40
22850;DHT22;11591;44.792;10.358;2023-08-08T14:58:20;30.40;75.30
22850;DHT22;11591;44.792;10.358;2023-08-08T15:00:46;30.40;75.00
22850;DHT22;11591;44.792;10.358;2023-08-08T15:03:13;30.50;74.70
22850;DHT22;11591;44.792;10.358;2023-08-08T15:05:39;30.60;74.60
22850;DHT22;11591;44.792;10.358;2023-08-08T15:08:06;30.90;74.20
22850;DHT22;11591;44.792;10.358;2023-08-08T15:10:32;31.10;74.10
22850;DHT22;11591;44.792;10.358;2023-08-08T15:12:58;31.10;73.40
22850;DHT22;11591;44.792;10.358;2023-08-08T15:15:24;31.10;72.70
22850;DHT22;11591;44.792;10.358;2023-08-08T15:17:52;31.20;73.50
22850;DHT22;11591;44.792;10.358;2023-08-08T15:20:18;31.40;73.40
22850;DHT22;11591;44.792;10.358;2023-08-08T15:22:44;31.60;72.70
22850;DHT22;11591;44.792;10.358;2023-08-08T15:25:10;31.80;73.20
22850;DHT22;11591;44.792;10.358;2023-08-08T15:27:36;32.00;73.30
22850;DHT22;11591;44.792;10.358;2023-08-08T15:30:02;32.20;72.70
22850;DHT22;11591;44.792;10.358;2023-08-08T15:32:29;32.40;72.80
22850;DHT22;11591;44.792;10.358;2023-08-08T15:34:55;32.50;71.90
22850;DHT22;11591;44.792;10.358;2023-08-08T15:37:20;32.60;71.80
22850;DHT22;11591;44.792;10.358;2023-08-08T15:39:46;32.70;71.60
22850;DHT22;11591;44.792;10.358;2023-08-08T15:42:12;32.80;71.70
22850;DHT22;11591;44.792;10.358;2023-08-08T15:44:38;32.90;71.40
22850;DHT22;11591;44.792;10.358;2023-08-08T15:47:04;32.90;71.50
22850;DHT22;11591;44.792;10.358;2023-08-08T15:49:29;33.00;71.20
22850;DHT22;11591;44.792;10.358;2023-08-08T15:51:55;33.00;70.80
22850;DHT22;11591;44.792;10.358;2023-08-08T15:54:23;33.00;70.80
22850;DHT22;11591;44.792;10.358;2023-08-08T15:56:49;33.00;70.10
22850;DHT22;11591;44.792;10.358;2023-08-08T15:59:15;32.90;69.90
22850;DHT22;11591;44.792;10.358;2023-08-08T16:01:40;32.50;69.70
22850;DHT22;11591;44.792;10.358;2023-08-08T16:04:06;32.30;69.30
22850;DHT22;11591;44.792;10.358;2023-08-08T16:06:32;32.20;70.40
22850;DHT22;11591;44.792;10.358;2023-08-08T16:08:58;31.90;70.20
22850;DHT22;11591;44.792;10.358;2023-08-08T16:11:24;31.70;71.40
22850;DHT22;11591;44.792;10.358;2023-08-08T16:13:50;31.90;71.60
22850;DHT22;11591;44.792;10.358;2023-08-08T16:16:15;32.00;72.20
22850;DHT22;11591;44.792;10.358;2023-08-08T16:18:41;32.20;72.40
22850;DHT22;11591;44.792;10.358;2023-08-08T16:21:07;32.20;71.90
22850;DHT22;11591;44.792;10.358;2023-08-08T16:23:33;32.30;71.30
22850;DHT22;11591;44.792;10.358;2023-08-08T16:25:59;32.40;71.50
22850;DHT22;11591;44.792;10.358;2023-08-08T16:28:24;32.40;71.70
22850;DHT22;11591;44.792;10.358;2023-08-08T16:30:51;32.40;71.60
22850;DHT22;11591;44.792;10.358;2023-08-08T16:33:17;32.40;71.70
22850;DHT22;11591;44.792;10.358;2023-08-08T16:35:43;32.40;71.70
22850;DHT22;11591;44.792;10.358;2023-08-08T16:38:09;32.20;71.80
22850;DHT22;11591;44.792;10.358;2023-08-08T16:40:38;32.20;72.20
22850;DHT22;11591;44.792;10.358;2023-08-08T16:43:04;32.00;72.10
22850;DHT22;11591;44.792;10.358;2023-08-08T16:45:30;31.80;72.40
22850;DHT22;11591;44.792;10.358;2023-08-08T16:47:56;31.80;72.70
22850;DHT22;11591;44.792;10.358;2023-08-08T16:50:22;31.80;73.00
22850;DHT22;11591;44.792;10.358;2023-08-08T16:52:48;31.90;73.10
22850;DHT22;11591;44.792;10.358;2023-08-08T16:55:14;32.00;73.20
22850;DHT22;11591;44.792;10.358;2023-08-08T16:57:40;32.00;72.90
22850;DHT22;11591;44.792;10.358;2023-08-08T17:00:06;32.00;73.50
22850;DHT22;11591;44.792;10.358;2023-08-08T17:02:36;32.10;73.30
22850;DHT22;11591;44.792;10.358;2023-08-08T17:05:02;32.00;73.20
22850;DHT22;11591;44.792;10.358;2023-08-08T17:07:29;32.00;72.90
22850;DHT22;11591;44.792;10.358;2023-08-08T17:09:56;32.00;73.20
22850;DHT22;11591;44.792;10.358;2023-08-08T17:12:22;32.00;73.30
22850;DHT22;11591;44.792;10.358;2023-08-08T17:14:48;31.90;73.30
22850;DHT22;11591;44.792;10.358;2023-08-08T17:17:14;31.90;73.80
22850;DHT22;11591;44.792;10.358;2023-08-08T17:19:41;31.90;74.00
22850;DHT22;11591;44.792;10.358;2023-08-08T17:22:07;31.80;74.70
22850;DHT22;11591;44.792;10.358;2023-08-08T17:24:34;31.80;75.50
22850;DHT22;11591;44.792;10.358;2023-08-08T17:27:01;31.70;75.90
22850;DHT22;11591;44.792;10.358;2023-08-08T17:29:27;31.60;76.30
22850;DHT22;11591;44.792;10.358;2023-08-08T17:31:53;31.60;77.20
22850;DHT22;11591;44.792;10.358;2023-08-08T17:34:19;31.40;77.60
22850;DHT22;11591;44.792;10.358;2023-08-08T17:36:45;31.40;77.80
22850;DHT22;11591;44.792;10.358;2023-08-08T17:39:11;31.40;78.30
22850;DHT22;11591;44.792;10.358;2023-08-08T17:41:36;31.40;78.80
22850;DHT22;11591;44.792;10.358;2023-08-08T17:44:02;31.30;78.80
22850;DHT22;11591;44.792;10.358;2023-08-08T17:46:28;31.30;79.00
22850;DHT22;11591;44.792;10.358;2023-08-08T17:48:54;31.20;78.70
22850;DHT22;11591;44.792;10.358;2023-08-08T17:51:20;31.00;78.90
22850;DHT22;11591;44.792;10.358;2023-08-08T17:53:47;30.90;79.00
22850;DHT22;11591;44.792;10.358;2023-08-08T17:56:13;30.70;79.50
22850;DHT22;11591;44.792;10.358;2023-08-08T17:58:39;30.50;79.40
22850;DHT22;11591;44.792;10.358;2023-08-08T18:01:12;30.20;79.90
22850;DHT22;11591;44.792;10.358;2023-08-08T18:03:38;29.90;80.40
22850;DHT22;11591;44.792;10.358;2023-08-08T18:06:04;29.70;80.80
22850;DHT22;11591;44.792;10.358;2023-08-08T18:08:30;29.60;81.60
22850;DHT22;11591;44.792;10.358;2023-08-08T18:10:56;29.40;81.50
22850;DHT22;11591;44.792;10.358;2023-08-08T18:13:22;29.20;81.80
22850;DHT22;11591;44.792;10.358;2023-08-08T18:15:48;29.00;81.70
22850;DHT22;11591;44.792;10.358;2023-08-08T18:18:15;28.90;82.20
22850;DHT22;11591;44.792;10.358;2023-08-08T18:20:41;28.80;82.10
22850;DHT22;11591;44.792;10.358;2023-08-08T18:23:07;28.70;82.60
22850;DHT22;11591;44.792;10.358;2023-08-08T18:25:33;28.60;82.60
22850;DHT22;11591;44.792;10.358;2023-08-08T18:28:00;28.50;82.90
22850;DHT22;11591;44.792;10.358;2023-08-08T18:30:25;28.50;83.00
22850;DHT22;11591;44.792;10.358;2023-08-08T18:32:51;28.40;83.50
22850;DHT22;11591;44.792;10.358;2023-08-08T18:35:17;28.40;82.90
22850;DHT22;11591;44.792;10.358;2023-08-08T18:37:43;28.30;83.20
22850;DHT22;11591;44.792;10.358;2023-08-08T18:40:09;28.20;83.10
22850;DHT22;11591;44.792;10.358;2023-08-08T18:42:35;28.10;83.60
22850;DHT22;11591;44.792;10.358;2023-08-08T18:45:01;28.00;83.40
22850;DHT22;11591;44.792;10.358;2023-08-08T18:47:27;28.00;83.80
22850;DHT22;11591;44.792;10.358;2023-08-08T18:49:53;27.90;83.20
22850;DHT22;11591;44.792;10.358;2023-08-08T18:52:19;27.80;83.10
22850;DHT22;11591;44.792;10.358;2023-08-08T18:54:45;27.80;83.40
22850;DHT22;11591;44.792;10.358;2023-08-08T18:57:11;27.70;83.50
22850;DHT22;11591;44.792;10.358;2023-08-08T18:59:36;27.60;83.50
22850;DHT22;11591;44.792;10.358;2023-08-08T19:02:02;27.50;83.50
22850;DHT22;11591;44.792;10.358;2023-08-08T19:04:29;27.50;83.50
22850;DHT22;11591;44.792;10.358;2023-08-08T19:06:54;27.50;83.70
22850;DHT22;11591;44.792;10.358;2023-08-08T19:09:20;27.50;84.40
22850;DHT22;11591;44.792;10.358;2023-08-08T19:11:46;27.50;84.60
22850;DHT22;11591;44.792;10.358;2023-08-08T19:14:12;27.40;85.00
22850;DHT22;11591;44.792;10.358;2023-08-08T19:16:38;27.40;85.40
22850;DHT22;11591;44.792;10.358;2023-08-08T19:19:04;27.30;85.50
22850;DHT22;11591;44.792;10.358;2023-08-08T19:21:30;27.30;85.80
22850;DHT22;11591;44.792;10.358;2023-08-08T19:23:55;27.20;86.00
22850;DHT22;11591;44.792;10.358;2023-08-08T19:26:21;27.20;86.10
22850;DHT22;11591;44.792;10.358;2023-08-08T19:28:47;27.20;86.40
22850;DHT22;11591;44.792;10.358;2023-08-08T19:31:14;27.10;86.80
22850;DHT22;11591;44.792;10.358;2023-08-08T19:33:40;27.10;87.00
22850;DHT22;11591;44.792;10.358;2023-08-08T19:36:05;27.10;87.30
22850;DHT22;11591;44.792;10.358;2023-08-08T19:38:35;27.00;87.70